Terminal Aerodrome Forecast
Issued by NWS

Home | Current Version | Previous Version | Text Only | Print | Product List | Glossary On
Versions: 1 2 3 4 5 6 7 8 9 10 11 12 13 14 15 16 17 18 19 20 21 22 23 24 25 26 27 28 29
000
FTUS42 KCAE 060520
TAFCUB
TAF
KCUB 060520Z 0606/0706 VRB05KT P6SM VCSH SCT045 BKN060
     FM060900 27006KT P6SM BKN045
     FM061400 30009G15KT P6SM BKN045
     FM061800 30008KT P6SM VCSH SCT045 BKN060
     FM062300 VRB03KT P6SM FEW060=

USA.gov is the U.S. government's official web portal to all federal, state and local government web resources and services.